Swedona, Illinois
Current Conditions -  °F | °C
As of 4:52 PM on Friday 19 Dec 2014 (Local Time) from KMLI Reporting Station
Few Clouds Few Clouds  
Wind Chill: 22°   Ceiling: Unl
Heat Index: 29°   Visibility: 10mi
Dew Point: 20°   Wind: 7mph
Humidity: 69%   Direction: 70°ENE
Pressure: 30.27"   Gusts: NA
Location:  41.2827°N, 90.3344°W
Report Text: KMLI 192252Z 07006KT 10SM FEW048 M02/M07 A3027 RMK AO2 SLP261 T10171067
Loading
Personal Weather Stations






























Interactive Weather Map New forecast layout! Learn more

10-Day Weather Forecast

Advertisements
Track Severe Weather on mobile